Data for 02/23/2014

Time Sea-Level Adjusted Pressure Absolute Pressure Temperature Relative Humidity Dew Point   
(mb) (inHg) (mb) (inHg) (C) (F) (%) (C) (F)
00:05 1015 29.97 845 24.95 -9.7 14.6 76 -13.1 8.4
00:10 1015 29.97 845 24.95 -9.8 14.4 77 -13 8.5
00:15 1016 30 845 24.95 -9.9 14.2 78 -13.1 8.5
00:20 1016 30 845 24.95 -10 14 79 -13 8.7
00:25 1016 30 845 24.95 -10.1 13.8 78 -13.2 8.3
00:30 1016 30 845 24.95 -10.1 13.8 78 -13.2 8.2
00:35 1016 30 845 24.95 -10.1 13.8 78 -13.3 8.1
00:40 1016 30 845 24.95 -10.2 13.7 77 -13.4 7.8
00:45 1016 30 845 24.95 -10.2 13.7 76 -13.6 7.6
00:50 1016 30 845 24.95 -10.2 13.6 76 -13.7 7.4
00:55 1015 29.97 845 24.95 -10.3 13.6 75 -13.9 7
01:00 1015 29.97 845 24.95 -10.3 13.4 76 -13.8 7.1
01:05 1015 29.97 845 24.95 -10.3 13.4 76 -13.7 7.3
01:10 1015 29.97 845 24.95 -10.4 13.3 77 -13.8 7.2
01:15 1015 29.97 845 24.95 -10.5 13.2 77 -13.8 7.1
01:20 1015 29.97 845 24.95 -10.5 13.1 77 -13.8 7.1
01:25 1015 29.97 845 24.95 -10.5 13 77 -13.8 7.2
01:30 1015 29.97 845 24.95 -10.6 13 77 -13.8 7.2
01:35 1015 29.97 845 24.95 -10.6 12.9 78 -13.8 7.2
01:40 1015 29.97 845 24.95 -10.6 12.9 78 -13.8 7.1
01:45 1015 29.97 845 24.95 -10.7 12.8 79 -13.7 7.4
01:50 1015 29.97 845 24.95 -10.7 12.7 78 -13.8 7.1
01:55 1015 29.97 845 24.95 -10.7 12.7 78 -13.9 7.1
02:00 1015 29.97 845 24.95 -10.7 12.7 78 -13.8 7.1
02:05 1015 29.97 845 24.95 -10.7 12.7 77 -14 6.8
02:10 1015 29.97 845 24.95 -10.7 12.7 77 -14 6.9
02:15 1015 29.97 845 24.95 -10.7 12.7 75 -14.2 6.4
02:20 1015 29.97 845 24.95 -10.7 12.8 75 -14.3 6.3
02:25 1015 29.97 844 24.92 -10.6 13 73 -14.5 6
02:30 1015 29.97 845 24.95 -10.5 13 72 -14.7 5.5
02:35 1015 29.97 845 24.95 -10.5 13.1 71 -14.8 5.4
02:40 1015 29.97 845 24.95 -10.5 13.2 73 -14.4 6.1
02:45 1016 30 845 24.95 -10.6 13 76 -14.1 6.7
02:50 1016 30 845 24.95 -10.6 12.9 77 -13.9 6.9
02:55 1016 30 845 24.95 -10.7 12.8 77 -13.9 7
03:00 1016 30 845 24.95 -10.7 12.7 78 -13.8 7.2
03:05 1016 30 845 24.95 -10.7 12.7 78 -13.8 7.1
03:10 1016 30 845 24.95 -10.8 12.6 79 -13.8 7.2
03:15 1016 30 845 24.95 -10.8 12.6 79 -13.7 7.3
03:20 1016 30 845 24.95 -10.8 12.5 79 -13.7 7.3
03:25 1015 29.97 845 24.95 -10.8 12.5 79 -13.8 7.2
03:30 1015 29.97 845 24.95 -10.8 12.5 79 -13.8 7.1
03:35 1016 30 845 24.95 -10.8 12.6 77 -14 6.7
03:40 1015 29.97 845 24.95 -10.8 12.6 77 -14.1 6.6
03:45 1015 29.97 845 24.95 -10.8 12.6 76 -14.2 6.4
03:50 1015 29.97 845 24.95 -10.7 12.7 77 -14.1 6.6
03:55 1015 29.97 845 24.95 -10.8 12.7 76 -14.2 6.5
04:00 1015 29.97 845 24.95 -10.8 12.6 77 -14.1 6.7
04:05 1015 29.97 845 24.95 -10.8 12.6 78 -14 6.8
04:10 1015 29.97 845 24.95 -10.9 12.5 78 -14 6.7
04:15 1015 29.97 845 24.95 -10.9 12.4 78 -13.9 6.9
04:20 1015 29.97 845 24.95 -10.9 12.4 78 -13.9 6.9
04:25 1015 29.97 845 24.95 -10.9 12.4 78 -14 6.9
04:30 1015 29.97 845 24.95 -10.9 12.4 78 -14 6.7
04:35 1015 29.97 845 24.95 -10.9 12.4 78 -14 6.7
04:40 1015 29.97 845 24.95 -10.9 12.3 78 -14.1 6.7
04:45 1015 29.97 845 24.95 -11 12.3 78 -14.2 6.5
04:50 1015 29.97 845 24.95 -10.9 12.3 77 -14.2 6.5
04:55 1015 29.97 845 24.95 -10.9 12.4 76 -14.3 6.3
05:00 1016 30 845 24.95 -10.9 12.4 76 -14.3 6.3
05:05 1016 30 845 24.95 -10.9 12.4 77 -14.1 6.5
05:10 1016 30 845 24.95 -10.9 12.3 78 -14 6.7
05:15 1016 30 845 24.95 -11 12.3 78 -14 6.7
05:20 1016 30 845 24.95 -11 12.2 78 -14.2 6.5
05:25 1016 30 845 24.95 -11 12.2 78 -14.2 6.5
05:30 1016 30 845 24.95 -11 12.2 78 -14.2 6.5
05:35 1016 30 845 24.95 -11 12.3 77 -14.3 6.3
05:40 1016 30 845 24.95 -11 12.3 77 -14.3 6.3
05:45 1016 30 845 24.95 -11 12.3 76 -14.4 6.1
05:50 1016 30 845 24.95 -11 12.2 76 -14.4 6
05:55 1016 30 845 24.95 -11 12.2 76 -14.5 6
06:00 1016 30 845 24.95 -11 12.1 77 -14.4 6.2
06:05 1016 30 845 24.95 -11.1 12 78 -14.2 6.4
06:10 1016 30 845 24.95 -11.1 12 78 -14.2 6.4
06:15 1016 30 845 24.95 -11.2 11.9 79 -14.2 6.5
06:20 1016 30 845 24.95 -11.2 11.8 78 -14.3 6.3
06:25 1016 30 845 24.95 -11.3 11.8 78 -14.4 6
06:30 1016 30 845 24.95 -11.3 11.8 78 -14.4 6.1
06:35 1016 30 845 24.95 -11.3 11.7 77 -14.5 5.9
06:40 1016 30 845 24.95 -11.2 11.8 77 -14.5 6
06:45 1016 30 845 24.95 -11.2 11.8 78 -14.4 6
06:50 1016 30 845 24.95 -11.2 11.8 77 -14.5 5.9
06:55 1016 30 845 24.95 -11.3 11.7 77 -14.5 5.9
07:00 1016 30 845 24.95 -11.3 11.6 77 -14.6 5.8
07:05 1016 30 845 24.95 -11.3 11.7 76 -14.7 5.5
07:10 1016 30 845 24.95 -11.3 11.7 76 -14.8 5.4
07:15 1016 30 845 24.95 -11.3 11.7 76 -14.7 5.6
07:20 1016 30 845 24.95 -11.3 11.6 77 -14.6 5.7
07:25 1016 30 846 24.98 -11.4 11.5 76 -14.8 5.4
07:30 1016 30 845 24.95 -11.4 11.4 76 -14.9 5.2
07:35 1016 30 846 24.98 -11.5 11.4 75 -15 5
07:40 1016 30 846 24.98 -11.5 11.4 75 -15.1 4.9
07:45 1016 30 846 24.98 -11.5 11.3 74 -15.3 4.5
07:50 1016 30 846 24.98 -11.5 11.2 74 -15.4 4.3
07:55 1016 30 846 24.98 -11.5 11.2 75 -15.2 4.7
08:00 1017 30.03 846 24.98 -11.7 11 76 -15.1 4.8
08:05 1017 30.03 846 24.98 -11.7 10.9 75 -15.2 4.6
08:10 1017 30.03 846 24.98 -11.7 10.9 75 -15.3 4.5
08:15 1017 30.03 846 24.98 -11.7 10.9 74 -15.4 4.3
08:20 1017 30.03 846 24.98 -11.7 10.9 73 -15.6 3.9
08:25 1017 30.03 846 24.98 -11.7 10.9 73 -15.7 3.8
08:30 1017 30.03 846 24.98 -11.7 10.9 73 -15.7 3.8
08:35 1017 30.03 846 24.98 -11.7 10.9 73 -15.7 3.7
08:40 1017 30.03 846 24.98 -11.8 10.8 73 -15.7 3.8
08:45 1017 30.03 846 24.98 -11.8 10.8 73 -15.7 3.7
08:50 1017 30.03 846 24.98 -11.8 10.8 73 -15.8 3.6
08:55 1017 30.03 846 24.98 -11.8 10.8 73 -15.8 3.6
09:00 1017 30.03 846 24.98 -11.8 10.8 72 -15.8 3.5
09:05 1017 30.03 846 24.98 -11.8 10.7 72 -15.9 3.3
09:10 1017 30.03 846 24.98 -11.8 10.7 72 -15.9 3.3
09:15 1017 30.03 846 24.98 -11.8 10.8 72 -15.9 3.3
09:20 1017 30.03 846 24.98 -11.8 10.7 72 -16 3.2
09:25 1017 30.03 846 24.98 -11.8 10.7 72 -15.9 3.3
09:30 1017 30.03 846 24.98 -11.8 10.8 71 -16.1 3.1
09:35 1017 30.03 846 24.98 -11.8 10.8 71 -16.1 3.1
09:40 1017 30.03 846 24.98 -11.8 10.8 72 -15.9 3.4
09:45 1017 30.03 846 24.98 -11.7 10.9 71 -15.9 3.4
09:50 1017 30.03 846 24.98 -11.6 11 71 -15.9 3.4
09:55 1017 30.03 847 25.01 -11.7 11 72 -15.8 3.6
10:00 1017 30.03 846 24.98 -11.7 10.9 71 -15.9 3.4
10:05 1017 30.03 847 25.01 -11.7 11 71 -15.9 3.4
10:10 1017 30.03 847 25.01 -11.7 11 71 -15.8 3.5
10:15 1017 30.03 847 25.01 -11.5 11.2 70 -15.9 3.3
10:20 1017 30.03 847 25.01 -11.6 11.2 73 -15.6 4
10:25 1017 30.03 847 25.01 -11.6 11.1 73 -15.6 4
10:30 1017 30.03 847 25.01 -11.4 11.4 73 -15.4 4.3
10:35 1017 30.03 847 25.01 -11.4 11.6 72 -15.5 4.1
10:40 1017 30.03 847 25.01 -11.3 11.6 71 -15.7 3.8
10:45 1017 30.03 847 25.01 -11.4 11.5 70 -15.8 3.5
10:50 1017 30.03 847 25.01 -11.4 11.6 70 -15.8 3.6
10:55 1017 30.03 847 25.01 -11.2 11.9 67 -16.1 3
11:00 1017 30.03 847 25.01 -11.2 11.9 69 -15.9 3.5
11:05 1017 30.03 847 25.01 -11.1 12 68 -15.9 3.4
11:10 1017 30.03 847 25.01 -11.1 12.1 68 -15.9 3.4
11:15 1017 30.03 847 25.01 -11 12.2 69 -15.7 3.8
11:20 1017 30.03 847 25.01 -10.8 12.5 68 -15.6 3.9
11:25 1017 30.03 847 25.01 -10.9 12.5 68 -15.7 3.8
11:30 1017 30.03 847 25.01 -10.8 12.6 68 -15.6 3.9
11:35 1017 30.03 847 25.01 -10.8 12.6 68 -15.6 3.9
11:40 1017 30.03 846 24.98 -10.7 12.7 69 -15.4 4.2
11:45 1017 30.03 847 25.01 -10.7 12.8 69 -15.3 4.5
11:50 1017 30.03 846 24.98 -10.6 13 67 -15.6 3.9
11:55 1017 30.03 847 25.01 -10.7 12.8 69 -15.3 4.5
12:00 1017 30.03 846 24.98 -10.7 12.8 68 -15.5 4.1
12:05 1017 30.03 846 24.98 -10.6 12.9 68 -15.4 4.2
12:10 1017 30.03 846 24.98 -10.6 12.9 67 -15.5 4
12:15 1017 30.03 846 24.98 -10.5 13.1 66 -15.8 3.6
12:20 1017 30.03 846 24.98 -10.4 13.4 64 -15.9 3.5
12:25 1017 30.03 846 24.98 -10.4 13.4 65 -15.8 3.6
12:30 1017 30.03 846 24.98 -10.2 13.6 65 -15.6 3.9
12:35 1017 30.03 846 24.98 -9.9 14.2 64 -15.4 4.2
12:40 1017 30.03 846 24.98 -10 13.9 65 -15.4 4.2
12:45 1017 30.03 846 24.98 -9.8 14.4 64 -15.4 4.3
12:50 1017 30.03 846 24.98 -9.6 14.7 64 -15.1 4.8
12:55 1017 30.03 846 24.98 -9.4 15.1 63 -15.1 4.8
13:00 1017 30.03 846 24.98 -9.3 15.3 64 -14.9 5.2
13:05 1017 30.03 846 24.98 -8.9 16 66 -14.1 6.6
13:10 1017 30.03 846 24.98 -8.7 16.4 63 -14.5 5.9
13:15 1017 30.03 846 24.98 -9.2 15.5 64 -14.7 5.5
13:20 1017 30.03 846 24.98 -9.4 15.2 65 -14.7 5.5
13:25 1017 30.03 846 24.98 -9.4 15.1 65 -14.8 5.4
13:30 1017 30.03 846 24.98 -9.1 15.7 64 -14.7 5.5
13:35 1017 30.03 846 24.98 -8.8 16.2 63 -14.7 5.6
13:40 1017 30.03 846 24.98 -9 15.8 63 -14.9 5.2
13:45 1017 30.03 846 24.98 -8.8 16.1 62 -14.9 5.1
13:50 1017 30.03 846 24.98 -9.1 15.5 64 -14.8 5.4
13:55 1017 30.03 846 24.98 -8.9 16 63 -14.8 5.3
14:00 1017 30.03 846 24.98 -8.8 16.2 62 -14.9 5.2
14:05 1017 30.03 846 24.98 -8.9 16 63 -14.7 5.5
14:10 1016 30 846 24.98 -8.7 16.4 62 -14.6 5.7
14:15 1016 30 846 24.98 -8.5 16.8 60 -15 5
14:20 1016 30 846 24.98 -8.8 16.2 60 -15.1 4.8
14:25 1016 30 845 24.95 -8.7 16.4 61 -14.8 5.3
14:30 1016 30 845 24.95 -8.7 16.3 61 -15 5
14:35 1016 30 845 24.95 -8.6 16.5 61 -14.9 5.2
14:40 1016 30 845 24.95 -8.6 16.5 60 -15 5
14:45 1016 30 845 24.95 -8.5 16.8 61 -14.7 5.5
14:50 1016 30 845 24.95 -7.9 17.7 58 -14.8 5.4
14:55 1016 30 845 24.95 -8.1 17.4 57 -15.2 4.7
15:00 1016 30 845 24.95 -8.5 16.7 58 -15.2 4.6
15:05 1016 30 845 24.95 -9 15.8 60 -15.5 4.2
15:10 1016 30 845 24.95 -8.5 16.7 59 -15.2 4.6
15:15 1016 30 845 24.95 -8.4 17 57 -15.5 4.2
15:20 1016 30 845 24.95 -8.5 16.8 58 -15.3 4.5
15:25 1016 30 845 24.95 -8.3 17.1 58 -15.1 4.8
15:30 1016 30 845 24.95 -8.2 17.2 58 -15.1 4.7
15:35 1016 30 845 24.95 -8.7 16.3 59 -15.3 4.4
15:40 1016 30 845 24.95 -8.8 16.3 58 -15.7 3.7
15:45 1016 30 845 24.95 -8.7 16.4 58 -15.4 4.2
15:50 1016 30 845 24.95 -8.8 16.2 59 -15.4 4.3
15:55 1016 30 845 24.95 -9 15.9 59 -15.6 4
16:00 1015 29.97 845 24.95 -9.1 15.7 61 -15.2 4.7
16:05 1015 29.97 845 24.95 -9.5 15 63 -15.3 4.5
16:10 1015 29.97 845 24.95 -9.9 14.2 64 -15.4 4.3
16:15 1015 29.97 844 24.92 -9.9 14.1 64 -15.5 4.1
16:20 1015 29.97 844 24.92 -10.1 13.9 65 -15.5 4.1
16:25 1015 29.97 844 24.92 -10.4 13.4 65 -15.7 3.8
16:30 1015 29.97 844 24.92 -10.5 13.1 66 -15.6 3.9
16:35 1015 29.97 844 24.92 -10.5 13.1 67 -15.5 4
16:40 1015 29.97 844 24.92 -10.6 12.9 69 -15.3 4.5
16:45 1015 29.97 844 24.92 -10.7 12.7 70 -15.2 4.6
16:50 1015 29.97 844 24.92 -10.7 12.7 69 -15.3 4.4
16:55 1015 29.97 844 24.92 -10.8 12.6 69 -15.4 4.2
17:00 1015 29.97 844 24.92 -10.8 12.6 68 -15.6 4
17:05 1015 29.97 844 24.92 -10.7 12.7 67 -15.7 3.8
17:10 1015 29.97 844 24.92 -10.8 12.6 68 -15.7 3.8
17:15 1015 29.97 844 24.92 -10.7 12.7 67 -15.6 3.9
17:20 1015 29.97 844 24.92 -10.6 12.8 67 -15.7 3.8
17:25 1015 29.97 844 24.92 -10.7 12.8 66 -15.9 3.3
17:30 1015 29.97 844 24.92 -10.8 12.6 66 -16 3.3
17:35 1015 29.97 844 24.92 -10.9 12.5 66 -16.1 3.1
17:40 1015 29.97 844 24.92 -10.9 12.3 66 -16.1 3
17:45 1015 29.97 844 24.92 -11 12.3 67 -16 3.2
17:50 1015 29.97 844 24.92 -10.9 12.4 67 -16 3.3
17:55 1015 29.97 844 24.92 -11 12.1 66 -16.1 3
18:00 1015 29.97 844 24.92 -11 12.1 66 -16.1 2.9
18:05 1015 29.97 844 24.92 -11.1 12 67 -16.1 3
18:10 1015 29.97 844 24.92 -11.2 11.9 67 -16.1 3
18:15 1015 29.97 844 24.92 -11.2 11.8 68 -16.1 3
18:20 1015 29.97 844 24.92 -11.3 11.7 68 -16.1 3
18:25 1015 29.97 844 24.92 -11.3 11.8 67 -16.2 2.9
18:30 1015 29.97 844 24.92 -11.4 11.6 68 -16.1 3
18:35 1015 29.97 844 24.92 -11.3 11.6 68 -16.1 3.1
18:40 1015 29.97 844 24.92 -11.4 11.5 69 -16 3.1
18:45 1015 29.97 844 24.92 -11.4 11.5 69 -16.1 3.1
18:50 1015 29.97 844 24.92 -11.3 11.6 69 -15.9 3.3
18:55 1015 29.97 844 24.92 -11.3 11.6 69 -15.9 3.5
19:00 1015 29.97 844 24.92 -11.5 11.3 71 -15.8 3.5
19:05 1015 29.97 844 24.92 -11.6 11.2 71 -15.9 3.5
19:10 1015 29.97 844 24.92 -11.6 11.1 70 -16 3.2
19:15 1015 29.97 844 24.92 -11.6 11.1 70 -16 3.2
19:20 1015 29.97 844 24.92 -11.7 11 70 -16.1 3.1
19:25 1015 29.97 844 24.92 -11.7 11 70 -16.1 3
19:30 1015 29.97 844 24.92 -11.7 11 70 -16.1 3
19:35 1015 29.97 844 24.92 -11.7 10.9 70 -16.1 3.1
19:40 1015 29.97 844 24.92 -11.7 11 70 -16.1 3.1
19:45 1015 29.97 844 24.92 -11.7 11 70 -16.1 3
19:50 1015 29.97 844 24.92 -11.7 10.9 71 -16 3.2
19:55 1015 29.97 844 24.92 -11.7 10.9 70 -16.1 3
20:00 1015 29.97 844 24.92 -11.7 10.9 71 -16 3.2
20:05 1015 29.97 844 24.92 -11.7 11 70 -16 3.2
20:10 1015 29.97 844 24.92 -11.7 11 70 -16.1 3.1
20:15 1015 29.97 844 24.92 -11.8 10.8 70 -16.1 2.9
20:20 1015 29.97 844 24.92 -11.9 10.6 71 -16.2 2.9
20:25 1015 29.97 844 24.92 -11.8 10.8 71 -16.1 3
20:30 1015 29.97 844 24.92 -11.8 10.7 71 -16.2 2.9
20:35 1014 29.94 844 24.92 -11.9 10.6 72 -16 3.2
20:40 1014 29.94 844 24.92 -12 10.4 72 -16 3.1
20:45 1014 29.94 844 24.92 -12 10.3 73 -16 3.2
20:50 1014 29.94 843 24.89 -12.1 10.2 73 -16.1 3.1
20:55 1014 29.94 843 24.89 -12.1 10.2 73 -16 3.2
21:00 1014 29.94 844 24.92 -12.1 10.2 73 -16 3.2
21:05 1014 29.94 843 24.89 -12.1 10.3 73 -16 3.2
21:10 1014 29.94 843 24.89 -12 10.4 72 -16.1 3
21:15 1014 29.94 844 24.92 -11.9 10.5 72 -15.9 3.3
21:20 1014 29.94 844 24.92 -11.9 10.6 73 -15.8 3.5
21:25 1015 29.97 844 24.92 -11.9 10.5 73 -15.9 3.4
21:30 1015 29.97 844 24.92 -11.9 10.6 73 -15.8 3.6
21:35 1015 29.97 844 24.92 -11.9 10.6 73 -15.8 3.6
21:40 1015 29.97 844 24.92 -11.9 10.6 73 -15.8 3.5
21:45 1015 29.97 844 24.92 -11.9 10.6 73 -15.8 3.5
21:50 1015 29.97 844 24.92 -11.9 10.5 73 -15.9 3.5
21:55 1015 29.97 844 24.92 -11.9 10.6 74 -15.7 3.7
22:00 1015 29.97 844 24.92 -12 10.4 74 -15.8 3.5
22:05 1015 29.97 844 24.92 -12.1 10.3 74 -15.8 3.6
22:10 1014 29.94 844 24.92 -12.1 10.3 75 -15.7 3.7
22:15 1015 29.97 844 24.92 -12.1 10.2 75 -15.7 3.8
22:20 1014 29.94 844 24.92 -12.2 10.1 75 -15.7 3.8
22:25 1014 29.94 844 24.92 -12.2 10.1 76 -15.6 3.9
22:30 1014 29.94 844 24.92 -12.2 10 75 -15.7 3.7
22:35 1014 29.94 844 24.92 -12.2 10 76 -15.7 3.8
22:40 1014 29.94 844 24.92 -12.2 10 76 -15.7 3.8
22:45 1014 29.94 843 24.89 -12.2 10.1 74 -15.9 3.4
22:50 1014 29.94 843 24.89 -12.2 10 75 -15.8 3.5
22:55 1014 29.94 844 24.92 -12.2 10.1 75 -15.8 3.6
23:00 1014 29.94 844 24.92 -12.2 10.1 74 -15.8 3.5
23:05 1014 29.94 844 24.92 -12.1 10.2 74 -15.9 3.4
23:10 1014 29.94 844 24.92 -12 10.3 73 -15.9 3.4
23:15 1014 29.94 844 24.92 -12 10.5 74 -15.8 3.6
23:20 1014 29.94 844 24.92 -11.9 10.6 73 -15.7 3.7
23:25 1014 29.94 843 24.89 -11.9 10.6 73 -15.8 3.6
23:30 1014 29.94 843 24.89 -11.9 10.6 73 -15.8 3.5
23:35 1014 29.94 843 24.89 -11.9 10.7 73 -15.8 3.6
23:40 1014 29.94 843 24.89 -11.8 10.8 72 -15.8 3.6
23:45 1014 29.94 843 24.89 -11.8 10.8 73 -15.6 3.9
23:50 1014 29.94 843 24.89 -11.8 10.8 73 -15.7 3.7
23:55 1014 29.94 843 24.89 -11.8 10.7 73 -15.8 3.6
24:00 1014 29.94 843 24.89 -11.8 10.7 74 -15.6 3.8